createdAt,value
2022-10-05T00:02:36.877Z,10.6
2022-10-05T00:07:19.188Z,10.6
2022-10-05T00:12:01.526Z,11
2022-10-05T00:16:43.712Z,10.3
2022-10-05T00:21:26.052Z,10.5
2022-10-05T00:26:08.336Z,10.3
2022-10-05T00:30:50.564Z,9.89
2022-10-05T00:35:32.861Z,12.3
2022-10-05T00:40:15.168Z,11
2022-10-05T00:44:57.386Z,11.5
2022-10-05T00:49:39.728Z,11
2022-10-05T00:54:21.007Z,11.6
2022-10-05T00:59:03.336Z,10.7
2022-10-05T01:03:45.591Z,11.8
2022-10-05T01:08:27.846Z,12.9
2022-10-05T01:13:10.149Z,11.6
2022-10-05T01:17:52.379Z,10.4
2022-10-05T01:22:34.677Z,11.5
2022-10-05T01:27:16.983Z,10.4
2022-10-05T01:31:59.201Z,11
2022-10-05T01:36:41.587Z,12.1
2022-10-05T01:41:23.828Z,11.7
2022-10-05T01:46:06.130Z,11
2022-10-05T01:50:48.349Z,13
2022-10-05T01:55:29.658Z,14
2022-10-05T02:00:11.966Z,11.6
2022-10-05T02:04:54.185Z,12.3
2022-10-05T02:09:36.492Z,12.7
2022-10-05T02:14:18.806Z,14.3
2022-10-05T02:19:01.119Z,14.3
2022-10-05T02:23:43.334Z,13.3
2022-10-05T02:28:25.639Z,13.2
2022-10-05T02:33:07.956Z,13.7
2022-10-05T02:37:50.163Z,14.3
2022-10-05T02:42:32.475Z,12.2
2022-10-05T02:47:14.784Z,14.4
2022-10-05T02:51:57.004Z,15.3
2022-10-05T02:56:38.304Z,14.7
2022-10-05T03:01:20.619Z,16.29
2022-10-05T03:06:02.941Z,15.1
2022-10-05T03:10:45.142Z,16.79
2022-10-05T03:15:27.459Z,14.9
2022-10-05T03:20:08.768Z,13.1
2022-10-05T03:24:50.089Z,12.5
2022-10-05T03:29:31.382Z,15.3
2022-10-05T03:34:12.730Z,16
2022-10-05T03:38:54.910Z,15.3
2022-10-05T03:43:37.220Z,14.8
2022-10-05T03:48:19.536Z,15.9
2022-10-05T03:53:01.780Z,16.1
2022-10-05T03:57:44.054Z,17.5
2022-10-05T04:02:26.368Z,17.6
2022-10-05T04:07:08.683Z,17.4
2022-10-05T04:11:50.902Z,15.1
2022-10-05T04:16:33.215Z,15.8
2022-10-05T04:21:15.537Z,14.3
2022-10-05T04:25:57.731Z,15.4
2022-10-05T04:30:40.045Z,20
2022-10-05T04:35:21.357Z,19.2
2022-10-05T04:40:03.718Z,23
2022-10-05T04:44:45.899Z,18.6
2022-10-05T04:49:28.186Z,19.1
2022-10-05T04:54:10.493Z,18.2
2022-10-05T04:58:52.710Z,24.3
2022-10-05T05:03:35.126Z,19.6
2022-10-05T05:08:17.354Z,20.2
2022-10-05T05:12:59.554Z,17.1
2022-10-05T05:17:41.857Z,19.5
2022-10-05T05:22:24.170Z,19.2
2022-10-05T05:27:06.434Z,20.1
2022-10-05T05:31:48.692Z,19.2
2022-10-05T05:36:30.002Z,19.4
2022-10-05T05:41:12.329Z,20.5
2022-10-05T05:45:54.558Z,18.6
2022-10-05T05:50:36.883Z,18.6
2022-10-05T05:55:19.158Z,23.3
2022-10-05T06:00:01.409Z,23.9
2022-10-05T06:04:43.762Z,22
2022-10-05T06:09:26.010Z,20.8
2022-10-05T06:14:08.197Z,21.5
2022-10-05T06:18:50.544Z,22.1
2022-10-05T06:23:32.832Z,21.6
2022-10-05T06:28:15.232Z,27.5
2022-10-05T06:32:57.417Z,33.8
2022-10-05T06:37:39.771Z,34.59
2022-10-05T06:42:20.978Z,34.7
2022-10-05T06:47:03.205Z,35.59
2022-10-05T06:51:45.496Z,30.8
2022-10-05T06:56:27.837Z,33.3
2022-10-05T07:01:10.120Z,29.2
2022-10-05T07:05:52.335Z,27
2022-10-05T07:10:34.643Z,25.6
2022-10-05T07:15:17.001Z,24.2
2022-10-05T07:19:59.223Z,24.4
2022-10-05T07:24:41.479Z,20
2022-10-05T07:34:06.041Z,13.9
2022-10-05T07:43:30.630Z,19.6
2022-10-05T07:48:11.952Z,18.1
2022-10-05T07:52:54.177Z,13.2
2022-10-05T07:57:36.548Z,12.2
2022-10-05T08:02:18.741Z,12.9
2022-10-05T08:07:00.123Z,15
2022-10-05T08:11:41.297Z,16.1
2022-10-05T08:16:23.658Z,16.9
2022-10-05T08:21:04.925Z,15.2
2022-10-05T08:25:46.319Z,13.1
2022-10-05T08:30:28.541Z,8.39
2022-10-05T08:35:10.755Z,9.39
2022-10-05T08:39:53.090Z,6.4
2022-10-05T08:44:35.382Z,6.1
2022-10-05T08:49:17.617Z,6.4
2022-10-05T08:53:59.955Z,6.4
2022-10-05T08:58:42.216Z,6.7
2022-10-05T09:03:24.453Z,6.6
2022-10-05T09:08:06.771Z,7.8
2022-10-05T09:12:48.962Z,8.7
2022-10-05T09:17:31.366Z,8.2
2022-10-05T09:22:13.579Z,8.3
2022-10-05T09:26:54.948Z,7.3
2022-10-05T09:31:37.104Z,6.4
2022-10-05T09:36:19.421Z,4.8
2022-10-05T09:41:01.726Z,4.5
2022-10-05T09:45:44.067Z,4.5
2022-10-05T09:50:26.251Z,4.9
2022-10-05T09:55:08.567Z,7.6
2022-10-05T09:59:49.899Z,4.6
2022-10-05T10:04:31.087Z,4.4
2022-10-05T10:09:12.433Z,3.9
2022-10-05T10:13:54.728Z,4.4
2022-10-05T10:18:36.021Z,3.9
2022-10-05T10:23:18.423Z,4.69
2022-10-05T10:28:00.542Z,4.1
2022-10-05T10:32:42.962Z,4
2022-10-05T10:37:25.222Z,4.19
2022-10-05T10:42:07.500Z,3.5
2022-10-05T10:51:32.005Z,3.3
2022-10-05T10:56:14.216Z,3.9
2022-10-05T11:00:56.558Z,4
2022-10-05T11:05:38.880Z,3.6
2022-10-05T11:10:21.086Z,4.3
2022-10-05T11:15:03.316Z,3.9
2022-10-05T11:19:44.654Z,3.3
2022-10-05T11:24:26.958Z,2.8
2022-10-05T11:29:09.325Z,3.2
2022-10-05T11:33:51.476Z,3.3
2022-10-05T11:38:33.786Z,3.1
2022-10-05T11:43:16.125Z,3.5
2022-10-05T11:47:58.410Z,3.3
2022-10-05T11:52:39.688Z,2.9
2022-10-05T11:57:21.930Z,3.3
2022-10-05T12:02:03.270Z,3.1
2022-10-05T12:06:44.687Z,3.1
2022-10-05T12:11:25.979Z,3.8
2022-10-05T12:16:08.074Z,2.4
2022-10-05T12:20:50.382Z,2.7
2022-10-05T12:25:32.734Z,2.9
2022-10-05T12:30:14.911Z,2.6
2022-10-05T12:34:57.222Z,3.1
2022-10-05T12:39:39.571Z,2.9
2022-10-05T12:44:21.768Z,2.7
2022-10-05T12:49:04.076Z,2.09
2022-10-05T12:53:46.371Z,6.9
2022-10-05T12:58:28.594Z,2.2
2022-10-05T13:03:10.991Z,2
2022-10-05T13:07:53.211Z,2.8
2022-10-05T13:12:34.522Z,2.6
2022-10-05T13:17:16.766Z,2.3
2022-10-05T13:21:59.043Z,2.4
2022-10-05T13:26:41.358Z,2.5
2022-10-05T13:31:23.568Z,2.3
2022-10-05T13:36:04.983Z,2
2022-10-05T13:40:47.224Z,2.09
2022-10-05T13:45:28.503Z,2.09
2022-10-05T13:50:09.893Z,2.8
2022-10-05T13:54:52.026Z,2.2
2022-10-05T13:59:34.339Z,1.7
2022-10-05T14:04:16.649Z,2.5
2022-10-05T14:08:58.882Z,2.09
2022-10-05T14:13:41.192Z,3
2022-10-05T14:18:23.485Z,3.2
2022-10-05T14:23:05.703Z,1.9
2022-10-05T14:27:48.103Z,1.8
2022-10-05T14:32:30.324Z,1.6
2022-10-05T14:37:12.535Z,2.4
2022-10-05T14:41:54.849Z,1.7
2022-10-05T14:46:37.164Z,2.2
2022-10-05T14:51:18.476Z,1.6
2022-10-05T14:56:00.698Z,1.6
2022-10-05T15:00:42.994Z,1.6
2022-10-05T15:05:25.326Z,1.6
2022-10-05T15:10:07.544Z,1.9
2022-10-05T15:14:49.829Z,2.7
2022-10-05T15:19:32.155Z,2
2022-10-05T15:24:13.459Z,1.6
2022-10-05T15:28:54.707Z,2
2022-10-05T15:33:35.979Z,2.09
2022-10-05T15:38:17.316Z,1.7
2022-10-05T15:42:59.601Z,2.6
2022-10-05T15:47:41.908Z,2
2022-10-05T15:52:24.125Z,2.2
2022-10-05T15:57:06.437Z,3.2
2022-10-05T16:01:48.749Z,3.9
2022-10-05T16:06:30.966Z,3.2
2022-10-05T16:11:13.273Z,3.8
2022-10-05T16:15:55.640Z,3.3
2022-10-05T16:20:37.826Z,3.6
2022-10-05T16:25:20.114Z,4.1
2022-10-05T16:30:02.421Z,3.5
2022-10-05T16:34:44.642Z,3.9
2022-10-05T16:39:25.978Z,3.9
2022-10-05T16:44:08.255Z,4.9
2022-10-05T16:48:50.475Z,6.2
2022-10-05T16:53:32.791Z,6.9
2022-10-05T16:58:15.117Z,6.1
2022-10-05T17:02:57.303Z,5.3
2022-10-05T17:07:39.613Z,5
2022-10-05T17:12:20.933Z,5.7
2022-10-05T17:17:02.242Z,5.6
2022-10-05T17:21:44.666Z,10
2022-10-05T17:26:26.805Z,9.6
2022-10-05T17:31:09.075Z,9.8
2022-10-05T17:35:51.385Z,9.1
2022-10-05T17:40:33.599Z,9
2022-10-05T17:45:15.907Z,11.8
2022-10-05T17:49:58.227Z,12.5
2022-10-05T17:54:40.437Z,8.8
2022-10-05T17:59:22.742Z,10.8
2022-10-05T18:04:05.052Z,12.7
2022-10-05T18:08:47.268Z,14.1
2022-10-05T18:13:29.580Z,23.2
2022-10-05T18:18:10.888Z,20
2022-10-05T18:22:53.104Z,16.29
2022-10-05T18:27:35.592Z,21.3
2022-10-05T18:32:17.720Z,22.1
2022-10-05T18:37:00.047Z,19
2022-10-05T18:41:42.246Z,17
2022-10-05T18:46:24.564Z,20.29
2022-10-05T18:51:05.903Z,21.3
2022-10-05T18:55:47.177Z,20.4
2022-10-05T19:00:28.491Z,20.29
2022-10-05T19:05:09.797Z,19.79
2022-10-05T19:09:51.110Z,24.1
2022-10-05T19:14:32.317Z,22.8
2022-10-05T19:19:14.632Z,22.9
2022-10-05T19:23:56.945Z,25
2022-10-05T19:28:39.156Z,23.9
2022-10-05T19:33:21.463Z,26.8
2022-10-05T19:38:03.779Z,27.7
2022-10-05T19:42:45.989Z,21.3
2022-10-05T19:47:28.300Z,28.2
2022-10-05T19:52:10.640Z,24.2
2022-10-05T19:56:52.931Z,20.6
2022-10-05T20:01:35.171Z,22
2022-10-05T20:06:17.452Z,21.4
2022-10-05T20:10:59.757Z,24.7
2022-10-05T20:15:40.970Z,23.4
2022-10-05T20:20:23.277Z,22.8
2022-10-05T20:25:05.595Z,22.5
2022-10-05T20:29:47.817Z,19
2022-10-05T20:34:30.154Z,20.7
2022-10-05T20:39:12.430Z,25.6
2022-10-05T20:43:54.637Z,21.3
2022-10-05T20:48:35.946Z,15.4
2022-10-05T20:53:17.262Z,18.2
2022-10-05T20:57:58.572Z,19.79
2022-10-05T21:02:39.901Z,23.7
2022-10-05T21:07:22.278Z,24.9
2022-10-05T21:12:04.531Z,26.3
2022-10-05T21:16:46.719Z,24.6
2022-10-05T21:21:29.028Z,23.8
2022-10-05T21:30:53.548Z,23.2
2022-10-05T21:35:35.980Z,22.5
2022-10-05T21:40:18.171Z,25.7
2022-10-05T21:45:00.383Z,25.3
2022-10-05T21:49:42.713Z,23.4
2022-10-05T21:54:25.007Z,25.6
2022-10-05T21:59:07.269Z,24.5
2022-10-05T22:03:48.526Z,22.9
2022-10-05T22:08:30.857Z,22.9
2022-10-05T22:13:13.198Z,26.3
2022-10-05T22:17:55.370Z,21.2
2022-10-05T22:22:37.677Z,25.2
2022-10-05T22:27:20.029Z,26.8
2022-10-05T22:32:02.201Z,24.8
2022-10-05T22:36:44.512Z,28.6
2022-10-05T22:41:25.867Z,27.6
2022-10-05T22:46:07.158Z,33.3
2022-10-05T22:50:48.465Z,32.5
2022-10-05T22:55:29.752Z,30.4
2022-10-05T23:00:11.966Z,32.3
2022-10-05T23:04:54.277Z,31.2
2022-10-05T23:09:36.585Z,31.8
2022-10-05T23:14:18.798Z,33.8
2022-10-05T23:19:01.110Z,27.9
2022-10-05T23:23:43.422Z,29.2
2022-10-05T23:28:25.632Z,28.2
2022-10-05T23:33:07.944Z,28.6
2022-10-05T23:37:50.284Z,25.1
2022-10-05T23:42:32.579Z,26.8
2022-10-05T23:47:14.784Z,27.9
2022-10-05T23:51:57.102Z,30.6
2022-10-05T23:56:38.411Z,23.2
